createdAt,value
2023-08-17T00:00:26.131Z,10.43
2023-08-17T00:02:53.715Z,10.45
2023-08-17T00:05:21.037Z,9.73
2023-08-17T00:07:48.140Z,10.02
2023-08-17T00:10:15.308Z,10.25
2023-08-17T00:12:43.727Z,9.93
2023-08-17T00:15:11.072Z,10.20
2023-08-17T00:17:38.684Z,9.98
2023-08-17T00:20:06.521Z,10.23
2023-08-17T00:22:33.884Z,10.68
2023-08-17T00:25:01.311Z,11.05
2023-08-17T00:27:28.156Z,10.10
2023-08-17T00:29:55.730Z,10.77
2023-08-17T00:32:23.162Z,10.20
2023-08-17T00:34:50.225Z,10.85
2023-08-17T00:37:17.500Z,10.90
2023-08-17T00:39:44.520Z,10.63
2023-08-17T00:42:12.111Z,10.55
2023-08-17T00:44:39.149Z,10.55
2023-08-17T00:47:06.818Z,10.18
2023-08-17T00:49:35.355Z,11.23
2023-08-17T00:52:04.316Z,11.43
2023-08-17T00:54:32.353Z,11.82
2023-08-17T00:57:01.138Z,10.73
2023-08-17T00:59:33.083Z,11.23
2023-08-17T01:02:04.117Z,11.35
2023-08-17T01:04:31.509Z,11.43
2023-08-17T01:06:58.844Z,11.73
2023-08-17T01:09:25.725Z,11.45
2023-08-17T01:12:07.282Z,11.80
2023-08-17T01:14:57.705Z,12.48
2023-08-17T01:17:30.879Z,12.15
2023-08-17T01:20:00.102Z,11.35
2023-08-17T01:22:29.243Z,11.50
2023-08-17T01:24:59.651Z,12.35
2023-08-17T01:27:27.671Z,12.38
2023-08-17T01:29:54.895Z,12.40
2023-08-17T01:32:52.717Z,13.25
2023-08-17T01:35:29.115Z,11.90
2023-08-17T01:38:04.819Z,12.10
2023-08-17T01:40:34.300Z,12.05
2023-08-17T01:43:03.513Z,11.45
2023-08-17T01:45:31.121Z,11.70
2023-08-17T01:47:58.318Z,11.27
2023-08-17T01:50:25.450Z,11.90
2023-08-17T01:52:52.955Z,13.90
2023-08-17T01:55:24.402Z,12.30
2023-08-17T01:57:51.873Z,11.82
2023-08-17T02:00:19.175Z,12.27
2023-08-17T02:02:46.263Z,12.70
2023-08-17T02:05:13.945Z,12.55
2023-08-17T02:07:41.414Z,11.70
2023-08-17T02:10:08.650Z,12.82
2023-08-17T02:12:36.001Z,13.30
2023-08-17T02:15:03.465Z,12.30
2023-08-17T02:17:30.606Z,12.65
2023-08-17T02:19:58.070Z,12.40
2023-08-17T02:22:25.676Z,12.45
2023-08-17T02:24:52.974Z,12.02
2023-08-17T02:27:19.817Z,12.35
2023-08-17T02:29:47.053Z,12.85
2023-08-17T02:32:14.036Z,12.68
2023-08-17T02:34:41.289Z,12.23
2023-08-17T02:37:08.744Z,12.55
2023-08-17T02:39:35.812Z,11.98
2023-08-17T02:42:03.007Z,12.02
2023-08-17T02:44:30.161Z,12.25
2023-08-17T02:46:57.657Z,12.55
2023-08-17T02:49:24.714Z,12.10
2023-08-17T02:51:52.272Z,12.35
2023-08-17T02:54:19.308Z,11.90
2023-08-17T02:56:46.257Z,12.07
2023-08-17T02:59:13.737Z,12.68
2023-08-17T03:01:41.210Z,13.45
2023-08-17T03:04:08.320Z,12.00
2023-08-17T03:06:35.981Z,12.43
2023-08-17T03:09:03.607Z,13.30
2023-08-17T03:11:31.008Z,12.45
2023-08-17T03:14:01.237Z,12.02
2023-08-17T03:16:28.975Z,13.43
2023-08-17T03:18:56.764Z,12.82
2023-08-17T03:21:23.889Z,13.70
2023-08-17T03:23:51.431Z,13.10
2023-08-17T03:26:18.881Z,12.45
2023-08-17T03:28:46.217Z,13.80
2023-08-17T03:31:13.203Z,13.43
2023-08-17T03:33:41.799Z,13.90
2023-08-17T03:36:09.441Z,14.43
2023-08-17T03:38:36.460Z,14.45
2023-08-17T03:41:05.280Z,14.43
2023-08-17T03:43:32.732Z,12.98
2023-08-17T03:46:00.207Z,13.88
2023-08-17T03:48:27.714Z,15.00
2023-08-17T03:50:56.147Z,15.93
2023-08-17T03:53:23.546Z,14.57
2023-08-17T03:55:52.253Z,14.82
2023-08-17T03:58:19.722Z,14.70
2023-08-17T04:00:53.587Z,15.25
2023-08-17T04:03:21.122Z,14.43
2023-08-17T04:05:48.535Z,14.20
2023-08-17T04:08:15.575Z,13.27
2023-08-17T04:10:42.510Z,14.13
2023-08-17T04:13:10.073Z,14.07
2023-08-17T04:15:37.036Z,13.95
2023-08-17T04:18:04.344Z,13.85
2023-08-17T04:20:31.767Z,13.80
2023-08-17T04:22:58.931Z,15.45
2023-08-17T04:25:26.346Z,12.93
2023-08-17T04:27:53.664Z,13.48
2023-08-17T04:30:21.304Z,13.50
2023-08-17T04:32:53.407Z,12.25
2023-08-17T04:35:21.800Z,12.57
2023-08-17T04:37:49.376Z,12.40
2023-08-17T04:40:16.942Z,11.00
2023-08-17T04:42:44.445Z,12.32
2023-08-17T04:45:11.860Z,12.57
2023-08-17T04:47:39.404Z,11.15
2023-08-17T04:50:07.302Z,10.88
2023-08-17T04:52:34.226Z,11.00
2023-08-17T04:55:01.509Z,10.82
2023-08-17T04:57:29.392Z,10.50
2023-08-17T04:59:56.746Z,10.70
2023-08-17T05:02:23.970Z,9.85
2023-08-17T05:04:51.229Z,10.25
2023-08-17T05:07:18.769Z,10.77
2023-08-17T05:09:46.218Z,9.40
2023-08-17T05:12:14.486Z,8.68
2023-08-17T05:14:41.772Z,9.68
2023-08-17T05:17:08.926Z,9.27
2023-08-17T05:19:36.028Z,9.65
2023-08-17T05:22:03.352Z,8.35
2023-08-17T05:24:30.874Z,8.23
2023-08-17T05:26:58.858Z,8.98
2023-08-17T05:29:26.373Z,8.20
2023-08-17T05:31:53.423Z,8.13
2023-08-17T05:34:20.535Z,8.52
2023-08-17T05:36:47.703Z,8.38
2023-08-17T05:39:14.809Z,8.85
2023-08-17T05:41:42.066Z,8.60
2023-08-17T05:44:09.604Z,8.43
2023-08-17T05:46:37.276Z,7.72
2023-08-17T05:49:06.291Z,7.68
2023-08-17T05:51:33.879Z,8.63
2023-08-17T05:54:01.297Z,8.43
2023-08-17T05:56:29.438Z,8.32
2023-08-17T05:58:56.767Z,7.93
2023-08-17T06:01:23.638Z,8.02
2023-08-17T06:03:51.056Z,8.98
2023-08-17T06:06:18.416Z,9.05
2023-08-17T06:08:45.735Z,8.88
2023-08-17T06:11:12.972Z,7.97
2023-08-17T06:13:40.202Z,8.27
2023-08-17T06:16:07.464Z,8.07
2023-08-17T06:18:35.300Z,9.40
2023-08-17T06:21:02.601Z,7.90
2023-08-17T06:23:29.870Z,7.32
2023-08-17T06:26:00.783Z,8.43
2023-08-17T06:28:28.480Z,7.90
2023-08-17T06:30:58.442Z,8.10
2023-08-17T06:33:25.808Z,7.95
2023-08-17T06:35:53.424Z,8.90
2023-08-17T06:38:20.670Z,7.47
2023-08-17T06:40:49.038Z,8.00
2023-08-17T06:43:17.908Z,8.13
2023-08-17T06:45:46.249Z,7.35
2023-08-17T06:48:13.861Z,7.68
2023-08-17T06:50:42.598Z,7.10
2023-08-17T06:53:09.852Z,8.20
2023-08-17T06:55:36.748Z,6.80
2023-08-17T06:58:04.052Z,6.75
2023-08-17T07:00:31.499Z,7.78
2023-08-17T07:03:01.108Z,7.20
2023-08-17T07:05:29.026Z,6.03
2023-08-17T07:07:56.609Z,7.10
2023-08-17T07:10:23.859Z,7.55
2023-08-17T07:12:51.202Z,6.28
2023-08-17T07:15:18.504Z,6.93
2023-08-17T07:17:45.829Z,6.35
2023-08-17T07:20:17.082Z,6.40
2023-08-17T07:22:45.099Z,7.38
2023-08-17T07:25:12.378Z,6.80
2023-08-17T07:27:39.611Z,8.57
2023-08-17T07:30:08.256Z,7.05
2023-08-17T07:32:35.959Z,7.35
2023-08-17T07:35:03.243Z,7.70
2023-08-17T07:37:34.534Z,7.07
2023-08-17T07:40:04.820Z,7.25
2023-08-17T07:42:32.602Z,6.80
2023-08-17T07:45:00.049Z,7.72
2023-08-17T07:47:27.955Z,6.60
2023-08-17T07:49:55.550Z,7.40
2023-08-17T07:52:22.805Z,7.13
2023-08-17T07:54:50.034Z,6.97
2023-08-17T07:57:17.288Z,7.25
2023-08-17T07:59:44.536Z,7.20
2023-08-17T08:02:11.786Z,7.78
2023-08-17T08:04:39.077Z,7.55
2023-08-17T08:07:06.326Z,7.60
2023-08-17T08:09:33.584Z,8.55
2023-08-17T08:12:00.865Z,7.88
2023-08-17T08:14:28.175Z,8.00
2023-08-17T08:16:55.420Z,8.32
2023-08-17T08:19:23.315Z,7.70
2023-08-17T08:21:50.592Z,7.43
2023-08-17T08:24:26.658Z,7.68
2023-08-17T08:26:58.312Z,8.02
2023-08-17T08:29:25.572Z,8.60
2023-08-17T08:31:52.854Z,8.38
2023-08-17T08:34:20.217Z,7.95
2023-08-17T08:36:48.313Z,8.00
2023-08-17T08:39:15.673Z,8.13
2023-08-17T08:41:42.902Z,8.15
2023-08-17T08:44:10.374Z,7.97
2023-08-17T08:46:43.145Z,7.70
2023-08-17T08:49:12.192Z,8.35
2023-08-17T08:51:47.225Z,8.65
2023-08-17T08:54:17.075Z,8.30
2023-08-17T08:56:47.783Z,7.63
2023-08-17T08:59:16.224Z,8.20
2023-08-17T09:01:43.932Z,8.38
2023-08-17T09:04:11.250Z,7.55
2023-08-17T09:06:39.465Z,7.18
2023-08-17T09:09:08.918Z,7.20
2023-08-17T09:11:36.501Z,7.15
2023-08-17T09:14:04.109Z,7.57
2023-08-17T09:16:31.461Z,8.23
2023-08-17T09:18:58.810Z,8.02
2023-08-17T09:21:26.255Z,7.13
2023-08-17T09:23:59.100Z,5.90
2023-08-17T09:26:26.844Z,6.28
2023-08-17T09:28:57.962Z,6.82
2023-08-17T09:31:25.900Z,6.50
2023-08-17T09:33:53.516Z,7.28
2023-08-17T09:36:24.129Z,6.68
2023-08-17T09:38:52.676Z,6.60
2023-08-17T09:41:20.461Z,6.57
2023-08-17T09:43:48.334Z,6.35
2023-08-17T09:46:16.202Z,6.32
2023-08-17T09:48:46.743Z,5.55
2023-08-17T09:51:17.035Z,5.93
2023-08-17T09:53:44.625Z,5.45
2023-08-17T09:56:17.866Z,5.68
2023-08-17T09:58:45.792Z,5.13
2023-08-17T10:01:14.654Z,5.22
2023-08-17T10:03:46.380Z,4.75
2023-08-17T10:06:17.574Z,5.38
2023-08-17T10:08:47.536Z,5.75
2023-08-17T10:11:17.344Z,4.90
2023-08-17T10:13:53.647Z,5.47
2023-08-17T10:19:11.687Z,4.57
2023-08-17T10:21:47.886Z,4.05
2023-08-17T10:24:15.595Z,4.10
2023-08-17T10:26:43.144Z,4.07
2023-08-17T10:29:15.401Z,3.97
2023-08-17T10:31:48.882Z,4.63
2023-08-17T10:34:16.431Z,4.35
2023-08-17T10:36:43.998Z,4.30
2023-08-17T10:39:30.352Z,4.03
2023-08-17T10:41:59.364Z,4.40
2023-08-17T10:44:48.985Z,4.13
2023-08-17T10:47:24.742Z,4.28
2023-08-17T10:50:00.055Z,4.60
2023-08-17T10:52:30.755Z,3.33
2023-08-17T10:54:58.610Z,4.00
2023-08-17T10:57:39.334Z,3.72
2023-08-17T11:00:30.770Z,3.85
2023-08-17T11:03:04.502Z,3.53
2023-08-17T11:05:42.533Z,4.43
2023-08-17T11:08:30.167Z,3.05
2023-08-17T11:11:05.557Z,3.35
2023-08-17T11:13:34.521Z,3.42
2023-08-17T11:16:03.944Z,3.67
2023-08-17T11:18:32.121Z,3.88
2023-08-17T11:20:59.577Z,3.47
2023-08-17T11:23:26.950Z,3.42
2023-08-17T11:25:54.457Z,3.53
2023-08-17T11:28:21.772Z,3.63
2023-08-17T11:31:01.428Z,3.63
2023-08-17T11:33:29.052Z,2.78
2023-08-17T11:36:03.206Z,3.25
2023-08-17T11:38:39.246Z,3.10
2023-08-17T11:41:09.493Z,3.30
2023-08-17T11:43:37.210Z,3.05
2023-08-17T11:46:04.607Z,3.30
2023-08-17T11:48:36.677Z,2.63
2023-08-17T11:51:05.400Z,2.97
2023-08-17T11:53:42.412Z,2.65
2023-08-17T11:56:11.584Z,2.55
2023-08-17T11:58:48.240Z,2.58
2023-08-17T12:01:17.844Z,1.98
2023-08-17T12:03:45.982Z,2.28
2023-08-17T12:06:16.847Z,2.08
2023-08-17T12:08:48.814Z,2.33
2023-08-17T12:11:19.434Z,2.40
2023-08-17T12:13:54.493Z,2.38
2023-08-17T12:16:22.512Z,2.92
2023-08-17T12:18:53.721Z,2.58
2023-08-17T12:21:22.891Z,2.50
2023-08-17T12:23:50.462Z,2.30
2023-08-17T12:26:21.256Z,2.05
2023-08-17T12:28:48.518Z,2.60
2023-08-17T12:31:15.894Z,2.30
2023-08-17T12:33:43.225Z,2.33
2023-08-17T12:36:10.556Z,2.38
2023-08-17T12:38:39.140Z,2.40
2023-08-17T12:41:07.230Z,2.47
2023-08-17T12:43:34.792Z,2.20
2023-08-17T12:46:02.046Z,2.35
2023-08-17T12:48:29.313Z,2.38
2023-08-17T12:50:57.626Z,1.98
2023-08-17T12:53:24.949Z,2.70
2023-08-17T12:55:56.002Z,2.20
2023-08-17T12:58:23.668Z,2.20
2023-08-17T13:00:51.630Z,2.45
2023-08-17T13:03:19.223Z,2.65
2023-08-17T13:05:46.590Z,2.28
2023-08-17T13:08:13.917Z,2.40
2023-08-17T13:10:41.268Z,2.65
2023-08-17T13:13:08.493Z,2.55
2023-08-17T13:15:35.845Z,2.30
2023-08-17T13:18:03.528Z,3.95
2023-08-17T13:20:30.798Z,2.70
2023-08-17T13:22:58.117Z,2.58
2023-08-17T13:25:25.402Z,2.92
2023-08-17T13:27:52.630Z,2.42
2023-08-17T13:30:19.895Z,2.13
2023-08-17T13:32:47.348Z,2.20
2023-08-17T13:35:15.461Z,2.33
2023-08-17T13:37:42.960Z,2.60
2023-08-17T13:40:11.286Z,2.38
2023-08-17T13:42:38.689Z,2.17
2023-08-17T13:45:06.297Z,2.40
2023-08-17T13:47:33.698Z,2.50
2023-08-17T13:50:00.702Z,2.63
2023-08-17T13:52:28.291Z,2.40
2023-08-17T13:54:56.012Z,2.42
2023-08-17T13:57:23.086Z,2.25
2023-08-17T13:59:50.634Z,2.75
2023-08-17T14:02:19.291Z,1.98
2023-08-17T14:04:46.801Z,2.55
2023-08-17T14:07:14.817Z,2.55
2023-08-17T14:09:48.661Z,2.70
2023-08-17T14:12:22.177Z,2.33
2023-08-17T14:14:49.478Z,2.35
2023-08-17T14:17:17.460Z,2.42
2023-08-17T14:19:45.037Z,2.72
2023-08-17T14:22:12.090Z,2.13
2023-08-17T14:24:39.601Z,2.30
2023-08-17T14:27:06.859Z,2.60
2023-08-17T14:29:34.126Z,2.75
2023-08-17T14:32:01.243Z,2.60
2023-08-17T14:34:28.543Z,2.58
2023-08-17T14:36:55.807Z,2.53
2023-08-17T14:39:23.103Z,3.13
2023-08-17T14:41:50.397Z,3.08
2023-08-17T14:44:18.678Z,3.00
2023-08-17T14:46:45.934Z,2.47
2023-08-17T14:49:13.765Z,3.15
2023-08-17T14:51:41.609Z,2.50
2023-08-17T14:54:09.250Z,2.88
2023-08-17T14:56:36.817Z,3.13
2023-08-17T15:01:37.055Z,2.65
2023-08-17T15:04:04.506Z,2.88
2023-08-17T15:06:41.960Z,3.00
2023-08-17T15:09:10.391Z,3.03
2023-08-17T15:11:37.725Z,3.20
2023-08-17T15:14:04.948Z,3.22
2023-08-17T15:16:32.261Z,2.78
2023-08-17T15:18:59.803Z,3.03
2023-08-17T15:21:27.309Z,3.47
2023-08-17T15:23:54.796Z,3.78
2023-08-17T15:26:22.042Z,2.97
2023-08-17T15:28:49.385Z,2.85
2023-08-17T15:31:17.821Z,3.58
2023-08-17T15:33:45.357Z,2.80
2023-08-17T15:36:12.608Z,3.65
2023-08-17T15:38:39.888Z,3.10
2023-08-17T15:41:07.196Z,3.40
2023-08-17T15:43:34.471Z,3.15
2023-08-17T15:46:01.825Z,3.35
2023-08-17T15:48:29.227Z,3.10
2023-08-17T15:50:56.563Z,2.88
2023-08-17T15:53:23.860Z,3.05
2023-08-17T15:55:51.115Z,4.95
2023-08-17T15:58:18.437Z,4.30
2023-08-17T16:00:45.800Z,4.28
2023-08-17T16:03:13.713Z,3.53
2023-08-17T16:05:41.119Z,5.00
2023-08-17T16:08:08.584Z,4.22
2023-08-17T16:10:36.867Z,4.50
2023-08-17T16:13:04.520Z,4.43
2023-08-17T16:15:31.931Z,4.82
2023-08-17T16:18:02.033Z,4.45
2023-08-17T16:20:31.485Z,3.45
2023-08-17T16:22:59.038Z,3.80
2023-08-17T16:27:57.040Z,3.22
2023-08-17T16:30:24.611Z,2.75
2023-08-17T16:32:52.073Z,3.42
2023-08-17T16:35:19.475Z,3.05
2023-08-17T16:37:46.765Z,2.63
2023-08-17T16:40:24.215Z,3.08
2023-08-17T16:43:01.364Z,4.25
2023-08-17T16:45:29.007Z,3.70
2023-08-17T16:47:56.292Z,4.15
2023-08-17T16:50:23.573Z,5.45
2023-08-17T16:52:51.272Z,5.13
2023-08-17T16:55:18.759Z,5.75
2023-08-17T16:57:46.327Z,5.43
2023-08-17T17:00:13.811Z,4.70
2023-08-17T17:02:41.274Z,4.63
2023-08-17T17:05:08.827Z,4.25
2023-08-17T17:07:36.155Z,4.65
2023-08-17T17:10:03.549Z,4.22
2023-08-17T17:12:30.828Z,4.60
2023-08-17T17:14:59.271Z,4.40
2023-08-17T17:17:26.985Z,4.22
2023-08-17T17:19:54.508Z,5.03
2023-08-17T17:22:22.223Z,4.90
2023-08-17T17:24:49.481Z,4.88
2023-08-17T17:27:17.599Z,4.80
2023-08-17T17:29:44.886Z,4.00
2023-08-17T17:32:12.138Z,4.05
2023-08-17T17:34:39.398Z,3.75
2023-08-17T17:37:06.667Z,3.95
2023-08-17T17:39:34.364Z,3.58
2023-08-17T17:42:01.663Z,4.15
2023-08-17T17:44:29.029Z,4.25
2023-08-17T17:46:56.330Z,4.40
2023-08-17T17:49:23.665Z,4.45
2023-08-17T17:51:51.207Z,4.57
2023-08-17T17:54:18.493Z,3.40
2023-08-17T17:56:45.959Z,3.28
2023-08-17T17:59:14.006Z,3.75
2023-08-17T18:01:41.414Z,3.78
2023-08-17T18:04:10.726Z,4.32
2023-08-17T18:06:38.354Z,3.72
2023-08-17T18:09:08.574Z,3.85
2023-08-17T18:11:36.030Z,4.25
2023-08-17T18:14:03.739Z,3.47
2023-08-17T18:16:31.627Z,4.45
2023-08-17T18:18:59.079Z,4.20
2023-08-17T18:21:26.026Z,4.15
2023-08-17T18:23:53.290Z,4.40
2023-08-17T18:26:20.579Z,3.95
2023-08-17T18:28:48.193Z,4.35
2023-08-17T18:31:15.089Z,5.35
2023-08-17T18:33:42.070Z,4.28
2023-08-17T18:36:09.305Z,4.00
2023-08-17T18:38:36.561Z,4.40
2023-08-17T18:41:09.011Z,4.78
2023-08-17T18:43:37.094Z,4.45
2023-08-17T18:46:04.584Z,4.63
2023-08-17T18:48:31.933Z,5.30
2023-08-17T18:50:59.776Z,3.90
2023-08-17T18:53:27.083Z,5.03
2023-08-17T18:55:54.336Z,5.22
2023-08-17T18:58:21.678Z,5.15
2023-08-17T19:00:48.880Z,5.53
2023-08-17T19:03:15.961Z,5.55
2023-08-17T19:05:43.302Z,5.80
2023-08-17T19:08:10.605Z,5.22
2023-08-17T19:10:37.842Z,5.53
2023-08-17T19:13:04.934Z,4.80
2023-08-17T19:15:32.225Z,5.00
2023-08-17T19:17:59.617Z,4.82
2023-08-17T19:20:26.927Z,6.00
2023-08-17T19:22:56.521Z,4.82
2023-08-17T19:25:24.743Z,5.03
2023-08-17T19:27:52.269Z,5.60
2023-08-17T19:30:19.805Z,5.00
2023-08-17T19:32:47.090Z,4.70
2023-08-17T19:35:15.984Z,5.35
2023-08-17T19:37:44.073Z,4.43
2023-08-17T19:40:11.617Z,5.43
2023-08-17T19:42:38.504Z,5.30
2023-08-17T19:45:05.910Z,5.20
2023-08-17T19:47:33.456Z,5.60
2023-08-17T19:50:00.720Z,5.35
2023-08-17T19:52:27.982Z,5.75
2023-08-17T19:54:54.884Z,5.20
2023-08-17T19:57:21.746Z,5.72
2023-08-17T19:59:48.999Z,5.90
2023-08-17T20:02:15.853Z,5.90
2023-08-17T20:04:43.138Z,6.15
2023-08-17T20:07:10.430Z,5.47
2023-08-17T20:09:37.729Z,6.50
2023-08-17T20:12:06.654Z,5.95
2023-08-17T20:14:37.144Z,5.40
2023-08-17T20:17:04.404Z,6.45
2023-08-17T20:19:35.563Z,7.07
2023-08-17T20:22:03.226Z,7.40
2023-08-17T20:24:31.507Z,8.15
2023-08-17T20:26:58.393Z,6.68
2023-08-17T20:29:25.683Z,7.22
2023-08-17T20:31:53.707Z,7.28
2023-08-17T20:34:21.077Z,7.05
2023-08-17T20:36:48.456Z,6.80
2023-08-17T20:39:18.727Z,7.22
2023-08-17T20:41:46.051Z,6.45
2023-08-17T20:44:15.007Z,7.03
2023-08-17T20:46:42.337Z,5.78
2023-08-17T20:49:09.189Z,6.70
2023-08-17T20:51:36.484Z,6.72
2023-08-17T20:54:03.809Z,7.90
2023-08-17T20:56:31.033Z,6.75
2023-08-17T20:58:57.872Z,7.25
2023-08-17T21:01:25.201Z,6.85
2023-08-17T21:03:52.534Z,7.15
2023-08-17T21:06:19.877Z,7.20
2023-08-17T21:08:47.144Z,6.35
2023-08-17T21:11:14.168Z,7.28
2023-08-17T21:13:41.465Z,5.65
2023-08-17T21:16:09.676Z,6.07
2023-08-17T21:18:36.826Z,7.05
2023-08-17T21:21:04.923Z,7.03
2023-08-17T21:23:32.407Z,6.30
2023-08-17T21:26:02.247Z,6.57
2023-08-17T21:28:29.637Z,6.65
2023-08-17T21:31:03.925Z,5.68
2023-08-17T21:33:31.410Z,6.25
2023-08-17T21:35:59.102Z,6.35
2023-08-17T21:38:26.364Z,6.60
2023-08-17T21:41:02.630Z,5.50
2023-08-17T21:43:30.555Z,6.80
2023-08-17T21:45:58.354Z,6.20
2023-08-17T21:48:25.787Z,6.47
2023-08-17T21:50:53.079Z,6.22
2023-08-17T21:53:20.996Z,5.70
2023-08-17T21:55:52.536Z,6.18
2023-08-17T21:58:19.933Z,6.13
2023-08-17T22:00:48.063Z,6.35
2023-08-17T22:03:16.213Z,6.93
2023-08-17T22:05:47.256Z,7.13
2023-08-17T22:08:15.418Z,6.78
2023-08-17T22:10:42.929Z,7.13
2023-08-17T22:13:09.821Z,5.82
2023-08-17T22:15:37.103Z,6.70
2023-08-17T22:18:04.325Z,5.10
2023-08-17T22:20:31.336Z,4.57
2023-08-17T22:22:58.705Z,4.80
2023-08-17T22:25:25.550Z,4.30
2023-08-17T22:27:52.812Z,4.95
2023-08-17T22:30:20.093Z,4.63
2023-08-17T22:32:47.532Z,5.38
2023-08-17T22:35:14.893Z,6.30
2023-08-17T22:37:41.751Z,6.15
2023-08-17T22:40:09.069Z,6.30
2023-08-17T22:42:36.722Z,6.47
2023-08-17T22:45:04.217Z,6.38
2023-08-17T22:47:32.168Z,7.60
2023-08-17T22:49:59.499Z,7.13
2023-08-17T22:52:26.872Z,6.95
2023-08-17T22:54:54.122Z,7.97
2023-08-17T22:57:21.369Z,6.78
2023-08-17T22:59:48.193Z,7.07
2023-08-17T23:02:15.457Z,6.28
2023-08-17T23:04:42.598Z,7.18
2023-08-17T23:07:10.090Z,7.30
2023-08-17T23:09:37.501Z,8.65
2023-08-17T23:12:06.188Z,7.70
2023-08-17T23:14:33.938Z,7.47
2023-08-17T23:17:01.239Z,8.30
2023-08-17T23:19:28.491Z,8.48
2023-08-17T23:21:55.719Z,8.40
2023-08-17T23:24:22.717Z,7.68
2023-08-17T23:26:49.783Z,7.32
2023-08-17T23:29:17.036Z,7.57
2023-08-17T23:31:44.359Z,8.50
2023-08-17T23:34:11.703Z,8.02
2023-08-17T23:36:38.678Z,6.95
2023-08-17T23:39:07.326Z,6.95
2023-08-17T23:41:34.950Z,7.75
2023-08-17T23:44:02.302Z,7.22
2023-08-17T23:46:29.570Z,7.75
2023-08-17T23:48:56.898Z,7.25
2023-08-17T23:51:23.906Z,6.28
2023-08-17T23:53:51.155Z,6.50
2023-08-17T23:56:18.458Z,6.43
2023-08-17T23:58:49.522Z,5.55
